GLO1006 SBSP-SBRJ
Flight info
| Callsign | GLO1006 |
|---|---|
| Flight time | 0h 50m |
| Altitude | 27000 |
| Route | NIBRU UZ171 KEVUN |
| Aircraft | B738/M-SDFGIKLORWXY/LB1 |
Departure
| Time | 2026-05-07 00:47 |
|---|---|
| Airport | Congonhas–Deputado Freitas Nobre Airport (SBSP) |
Arrival
| Time | 2026-05-07 01:38 |
|---|---|
| Airport | Santos Dumont Airport (SBRJ) |
| Time | Latitude | Longitude | Altitude | Speed | Heading |
|---|---|---|---|---|---|
| 2026-05-07 00:30 | -23.62751 | -46.65798 | 2653 ft | 0 kts | 237° |
| 2026-05-07 00:41 | -23.62749 | -46.65795 | 2653 ft | 2 kts | 237° |
| 2026-05-07 00:41 | -23.62744 | -46.65781 | 2653 ft | 2 kts | 264° |
| 2026-05-07 00:41 | -23.62744 | -46.65764 | 2654 ft | 2 kts | 285° |
| 2026-05-07 00:41 | -23.62750 | -46.65751 | 2655 ft | 2 kts | 306° |
| 2026-05-07 00:42 | -23.62759 | -46.65741 | 2655 ft | 0 kts | 325° |
| 2026-05-07 00:42 | -23.62764 | -46.65738 | 2655 ft | 1 kts | 328° |
| 2026-05-07 00:42 | -23.62764 | -46.65737 | 2655 ft | 0 kts | 328° |
| 2026-05-07 00:43 | -23.62747 | -46.65745 | 2655 ft | 8 kts | 343° |
| 2026-05-07 00:43 | -23.62682 | -46.65763 | 2653 ft | 10 kts | 345° |
| 2026-05-07 00:44 | -23.62604 | -46.65801 | 2650 ft | 13 kts | 329° |
| 2026-05-07 00:44 | -23.62515 | -46.65861 | 2646 ft | 16 kts | 328° |
| 2026-05-07 00:44 | -23.62405 | -46.65938 | 2639 ft | 20 kts | 328° |
| 2026-05-07 00:44 | -23.62275 | -46.66026 | 2631 ft | 20 kts | 330° |
| 2026-05-07 00:45 | -23.62160 | -46.66096 | 2624 ft | 17 kts | 328° |
| 2026-05-07 00:45 | -23.62080 | -46.66137 | 2616 ft | 12 kts | 1° |
| 2026-05-07 00:45 | -23.62057 | -46.66097 | 2616 ft | 3 kts | 108° |
| 2026-05-07 00:45 | -23.62066 | -46.66078 | 2617 ft | 2 kts | 126° |
| 2026-05-07 00:46 | -23.62088 | -46.66052 | 2619 ft | 5 kts | 136° |
| 2026-05-07 00:46 | -23.62113 | -46.66031 | 2621 ft | 3 kts | 147° |
| 2026-05-07 00:46 | -23.62126 | -46.66022 | 2622 ft | 3 kts | 149° |
| 2026-05-07 00:46 | -23.62345 | -46.65870 | 2638 ft | 76 kts | 147° |
| 2026-05-07 00:47 | -23.63007 | -46.65411 | 2668 ft | 146 kts | 148° |
| 2026-05-07 00:47 | -23.64003 | -46.64745 | 3033 ft | 175 kts | 148° |
| 2026-05-07 00:47 | -23.64983 | -46.64093 | 3944 ft | 171 kts | 137° |
| 2026-05-07 00:47 | -23.65612 | -46.62968 | 4529 ft | 181 kts | 106° |
| 2026-05-07 00:48 | -23.66014 | -46.61640 | 5078 ft | 193 kts | 112° |
| 2026-05-07 00:48 | -23.66654 | -46.60262 | 5579 ft | 213 kts | 118° |
| 2026-05-07 00:48 | -23.67401 | -46.58823 | 6128 ft | 230 kts | 118° |
| 2026-05-07 00:48 | -23.68200 | -46.57248 | 6762 ft | 244 kts | 117° |
| 2026-05-07 00:49 | -23.69032 | -46.55566 | 7341 ft | 261 kts | 117° |
| 2026-05-07 00:49 | -23.69898 | -46.53799 | 7939 ft | 276 kts | 116° |
| 2026-05-07 00:49 | -23.70821 | -46.51915 | 8704 ft | 284 kts | 117° |
| 2026-05-07 00:49 | -23.71656 | -46.49950 | 9494 ft | 289 kts | 108° |
| 2026-05-07 00:50 | -23.71954 | -46.47815 | 10358 ft | 289 kts | 87° |
| 2026-05-07 00:50 | -23.71714 | -46.45627 | 11026 ft | 299 kts | 81° |
| 2026-05-07 00:50 | -23.71346 | -46.43346 | 11574 ft | 313 kts | 80° |
| 2026-05-07 00:50 | -23.70955 | -46.40949 | 12087 ft | 327 kts | 81° |
| 2026-05-07 00:51 | -23.70568 | -46.38454 | 12599 ft | 341 kts | 81° |
| 2026-05-07 00:51 | -23.70191 | -46.35902 | 13323 ft | 345 kts | 82° |
| 2026-05-07 00:51 | -23.69816 | -46.33292 | 14032 ft | 351 kts | 82° |
| 2026-05-07 00:51 | -23.69443 | -46.30662 | 14738 ft | 356 kts | 82° |
| 2026-05-07 00:52 | -23.69061 | -46.27958 | 15431 ft | 361 kts | 82° |
| 2026-05-07 00:52 | -23.68679 | -46.25250 | 16140 ft | 365 kts | 82° |
| 2026-05-07 00:52 | -23.68287 | -46.22490 | 16785 ft | 371 kts | 83° |
| 2026-05-07 00:52 | -23.67894 | -46.19738 | 17439 ft | 375 kts | 83° |
| 2026-05-07 00:53 | -23.67488 | -46.16903 | 18126 ft | 378 kts | 83° |
| 2026-05-07 00:53 | -23.67078 | -46.14049 | 18753 ft | 383 kts | 83° |
| 2026-05-07 00:53 | -23.66665 | -46.11179 | 19395 ft | 387 kts | 83° |
| 2026-05-07 00:53 | -23.66252 | -46.08300 | 20014 ft | 391 kts | 83° |
| 2026-05-07 00:54 | -23.65831 | -46.05350 | 20594 ft | 397 kts | 83° |
| 2026-05-07 00:54 | -23.65406 | -46.02367 | 21199 ft | 401 kts | 84° |
| 2026-05-07 00:54 | -23.64972 | -45.99342 | 21785 ft | 405 kts | 84° |
| 2026-05-07 00:54 | -23.64537 | -45.96317 | 22478 ft | 405 kts | 84° |
| 2026-05-07 00:55 | -23.64103 | -45.93322 | 23243 ft | 403 kts | 84° |
| 2026-05-07 00:55 | -23.63668 | -45.90313 | 23880 ft | 404 kts | 84° |
| 2026-05-07 00:55 | -23.63233 | -45.87295 | 24516 ft | 405 kts | 85° |
| 2026-05-07 00:55 | -23.62797 | -45.84282 | 25105 ft | 406 kts | 85° |
| 2026-05-07 00:56 | -23.62361 | -45.81260 | 25772 ft | 404 kts | 85° |
| 2026-05-07 00:56 | -23.61925 | -45.78236 | 26342 ft | 405 kts | 85° |
| 2026-05-07 00:56 | -23.61485 | -45.75196 | 26872 ft | 407 kts | 85° |
| 2026-05-07 00:56 | -23.61041 | -45.72127 | 27183 ft | 411 kts | 85° |
| 2026-05-07 00:57 | -23.60597 | -45.69060 | 27185 ft | 411 kts | 85° |
| 2026-05-07 00:57 | -23.60149 | -45.66009 | 27185 ft | 405 kts | 85° |
| 2026-05-07 00:57 | -23.59704 | -45.62985 | 27195 ft | 405 kts | 85° |
| 2026-05-07 00:57 | -23.59261 | -45.59965 | 27194 ft | 406 kts | 85° |
| 2026-05-07 00:58 | -23.58815 | -45.56923 | 27200 ft | 406 kts | 85° |
| 2026-05-07 00:58 | -23.58372 | -45.53902 | 27198 ft | 405 kts | 85° |
| 2026-05-07 00:58 | -23.57927 | -45.50874 | 27196 ft | 406 kts | 85° |
| 2026-05-07 00:58 | -23.57482 | -45.47854 | 27191 ft | 404 kts | 85° |
| 2026-05-07 00:59 | -23.56413 | -45.41808 | 27191 ft | 408 kts | 82° |
| 2026-05-07 00:59 | -23.55768 | -45.38806 | 27185 ft | 407 kts | 81° |
| 2026-05-07 00:59 | -23.55109 | -45.35844 | 27182 ft | 408 kts | 81° |
| 2026-05-07 01:00 | -23.54431 | -45.32808 | 27175 ft | 407 kts | 81° |
| 2026-05-07 01:00 | -23.53772 | -45.29829 | 27170 ft | 407 kts | 81° |
| 2026-05-07 01:00 | -23.53120 | -45.26849 | 27169 ft | 405 kts | 81° |
| 2026-05-07 01:00 | -23.52474 | -45.23864 | 27171 ft | 407 kts | 81° |
| 2026-05-07 01:01 | -23.51822 | -45.20831 | 27166 ft | 407 kts | 81° |
| 2026-05-07 01:01 | -23.51184 | -45.17851 | 27158 ft | 407 kts | 81° |
| 2026-05-07 01:01 | -23.50545 | -45.14859 | 27154 ft | 405 kts | 81° |
| 2026-05-07 01:01 | -23.49907 | -45.11872 | 27156 ft | 405 kts | 81° |
| 2026-05-07 01:02 | -23.49267 | -45.08876 | 27147 ft | 405 kts | 81° |
| 2026-05-07 01:02 | -23.48636 | -45.05922 | 27147 ft | 405 kts | 81° |
| 2026-05-07 01:02 | -23.47995 | -45.02919 | 27143 ft | 406 kts | 81° |
| 2026-05-07 01:02 | -23.47356 | -44.99937 | 27142 ft | 404 kts | 81° |
| 2026-05-07 01:03 | -23.46726 | -44.96992 | 27140 ft | 404 kts | 81° |
| 2026-05-07 01:03 | -23.46084 | -44.94013 | 27135 ft | 405 kts | 81° |
| 2026-05-07 01:03 | -23.45426 | -44.91014 | 27142 ft | 405 kts | 81° |
| 2026-05-07 01:03 | -23.44763 | -44.88023 | 26832 ft | 410 kts | 81° |
| 2026-05-07 01:04 | -23.44091 | -44.84996 | 26093 ft | 421 kts | 80° |
| 2026-05-07 01:04 | -23.43405 | -44.81911 | 25462 ft | 422 kts | 79° |
| 2026-05-07 01:04 | -23.42711 | -44.78823 | 24851 ft | 420 kts | 79° |
| 2026-05-07 01:04 | -23.42022 | -44.75762 | 24350 ft | 415 kts | 79° |
| 2026-05-07 01:05 | -23.41341 | -44.72738 | 23845 ft | 411 kts | 79° |
| 2026-05-07 01:05 | -23.40663 | -44.69720 | 23311 ft | 407 kts | 79° |
| 2026-05-07 01:05 | -23.40003 | -44.66774 | 22833 ft | 402 kts | 79° |
| 2026-05-07 01:05 | -23.39342 | -44.63822 | 22333 ft | 398 kts | 78° |
| 2026-05-07 01:06 | -23.38687 | -44.60895 | 21792 ft | 395 kts | 78° |
| 2026-05-07 01:06 | -23.38044 | -44.58030 | 21271 ft | 392 kts | 78° |
| 2026-05-07 01:06 | -23.37406 | -44.55179 | 20764 ft | 388 kts | 78° |
| 2026-05-07 01:06 | -23.36772 | -44.52346 | 20243 ft | 385 kts | 78° |
| 2026-05-07 01:07 | -23.36137 | -44.49515 | 19737 ft | 381 kts | 78° |
| 2026-05-07 01:07 | -23.35514 | -44.46742 | 19235 ft | 377 kts | 78° |
| 2026-05-07 01:07 | -23.34868 | -44.43981 | 18698 ft | 375 kts | 76° |
| 2026-05-07 01:07 | -23.34059 | -44.41322 | 18176 ft | 373 kts | 71° |
| 2026-05-07 01:08 | -23.33075 | -44.38726 | 17671 ft | 370 kts | 68° |
| 2026-05-07 01:08 | -23.32006 | -44.36193 | 17166 ft | 366 kts | 66° |
| 2026-05-07 01:08 | -23.30912 | -44.33708 | 16686 ft | 363 kts | 65° |
| 2026-05-07 01:08 | -23.29828 | -44.31262 | 16172 ft | 360 kts | 65° |
| 2026-05-07 01:09 | -23.28746 | -44.28809 | 15654 ft | 355 kts | 65° |
| 2026-05-07 01:09 | -23.27705 | -44.26425 | 15142 ft | 351 kts | 65° |
| 2026-05-07 01:09 | -23.26759 | -44.24244 | 14652 ft | 348 kts | 65° |
| 2026-05-07 01:09 | -23.25707 | -44.21806 | 14122 ft | 344 kts | 65° |
| 2026-05-07 01:10 | -23.24687 | -44.19439 | 13594 ft | 341 kts | 65° |
| 2026-05-07 01:10 | -23.23682 | -44.17107 | 13078 ft | 337 kts | 65° |
| 2026-05-07 01:10 | -23.22696 | -44.14821 | 12920 ft | 332 kts | 65° |
| 2026-05-07 01:10 | -23.21709 | -44.12533 | 12920 ft | 338 kts | 65° |
| 2026-05-07 01:11 | -23.20709 | -44.10215 | 12916 ft | 337 kts | 65° |
| 2026-05-07 01:11 | -23.19706 | -44.07897 | 12912 ft | 338 kts | 65° |
| 2026-05-07 01:11 | -23.18679 | -44.05597 | 12908 ft | 338 kts | 64° |
| 2026-05-07 01:11 | -23.17621 | -44.03299 | 12396 ft | 342 kts | 63° |
| 2026-05-07 01:12 | -23.16552 | -44.00999 | 11688 ft | 344 kts | 63° |
| 2026-05-07 01:12 | -23.15477 | -43.98671 | 10979 ft | 345 kts | 64° |
| 2026-05-07 01:12 | -23.14471 | -43.96381 | 11092 ft | 327 kts | 65° |
| 2026-05-07 01:12 | -23.13513 | -43.94133 | 11109 ft | 328 kts | 65° |
| 2026-05-07 01:13 | -23.12567 | -43.91892 | 11110 ft | 326 kts | 65° |
| 2026-05-07 01:13 | -23.11627 | -43.89669 | 10861 ft | 320 kts | 65° |
| 2026-05-07 01:13 | -23.10705 | -43.87499 | 10567 ft | 310 kts | 65° |
| 2026-05-07 01:13 | -23.09821 | -43.85424 | 10422 ft | 297 kts | 65° |
| 2026-05-07 01:14 | -23.08971 | -43.83433 | 10324 ft | 282 kts | 65° |
| 2026-05-07 01:14 | -23.08155 | -43.81523 | 10216 ft | 281 kts | 65° |
| 2026-05-07 01:14 | -23.07326 | -43.79586 | 9902 ft | 283 kts | 65° |
| 2026-05-07 01:14 | -23.06505 | -43.77670 | 9522 ft | 280 kts | 65° |
| 2026-05-07 01:15 | -23.05681 | -43.75751 | 9164 ft | 276 kts | 65° |
| 2026-05-07 01:15 | -23.04878 | -43.73881 | 8822 ft | 272 kts | 65° |
| 2026-05-07 01:15 | -23.04080 | -43.72022 | 8479 ft | 268 kts | 65° |
| 2026-05-07 01:15 | -23.03299 | -43.70204 | 8159 ft | 264 kts | 65° |
| 2026-05-07 01:16 | -23.02525 | -43.68418 | 8072 ft | 259 kts | 65° |
| 2026-05-07 01:16 | -23.01725 | -43.66589 | 7702 ft | 267 kts | 64° |
| 2026-05-07 01:16 | -23.00941 | -43.64799 | 7380 ft | 262 kts | 64° |
| 2026-05-07 01:16 | -23.00151 | -43.62997 | 7051 ft | 259 kts | 65° |
| 2026-05-07 01:17 | -22.99385 | -43.61251 | 6990 ft | 258 kts | 65° |
| 2026-05-07 01:17 | -22.98595 | -43.59456 | 6982 ft | 262 kts | 64° |
| 2026-05-07 01:17 | -22.97819 | -43.57693 | 6985 ft | 262 kts | 65° |
| 2026-05-07 01:17 | -22.97044 | -43.55932 | 6852 ft | 255 kts | 65° |
| 2026-05-07 01:18 | -22.96279 | -43.54192 | 6571 ft | 253 kts | 64° |
| 2026-05-07 01:18 | -22.95512 | -43.52451 | 6248 ft | 259 kts | 65° |
| 2026-05-07 01:18 | -22.94743 | -43.50698 | 5992 ft | 254 kts | 65° |
| 2026-05-07 01:18 | -22.93986 | -43.48930 | 5686 ft | 256 kts | 65° |
| 2026-05-07 01:19 | -22.93251 | -43.47185 | 5425 ft | 248 kts | 65° |
| 2026-05-07 01:19 | -22.92544 | -43.45504 | 5155 ft | 243 kts | 65° |
| 2026-05-07 01:19 | -22.91844 | -43.43843 | 4908 ft | 241 kts | 65° |
| 2026-05-07 01:19 | -22.91150 | -43.42205 | 4717 ft | 242 kts | 65° |
| 2026-05-07 01:20 | -22.90442 | -43.40536 | 4358 ft | 242 kts | 65° |
| 2026-05-07 01:20 | -22.89741 | -43.38885 | 4056 ft | 237 kts | 65° |
| 2026-05-07 01:20 | -22.89063 | -43.37286 | 3782 ft | 228 kts | 65° |
| 2026-05-07 01:20 | -22.88415 | -43.35741 | 3499 ft | 221 kts | 66° |
| 2026-05-07 01:21 | -22.87860 | -43.34205 | 3233 ft | 214 kts | 69° |
| 2026-05-07 01:21 | -22.87386 | -43.32725 | 2978 ft | 199 kts | 70° |
| 2026-05-07 01:21 | -22.86966 | -43.31361 | 2770 ft | 179 kts | 71° |
| 2026-05-07 01:21 | -22.86576 | -43.30126 | 2539 ft | 164 kts | 70° |
| 2026-05-07 01:22 | -22.86213 | -43.29006 | 2382 ft | 150 kts | 70° |
| 2026-05-07 01:22 | -22.85898 | -43.28041 | 2194 ft | 142 kts | 70° |
| 2026-05-07 01:22 | -22.85555 | -43.26971 | 2041 ft | 138 kts | 71° |
| 2026-05-07 01:22 | -22.85446 | -43.25925 | 1862 ft | 142 kts | 97° |
| 2026-05-07 01:23 | -22.85689 | -43.24882 | 1653 ft | 142 kts | 101° |
| 2026-05-07 01:23 | -22.85853 | -43.23826 | 1455 ft | 140 kts | 95° |
| 2026-05-07 01:23 | -22.85983 | -43.22787 | 1268 ft | 141 kts | 97° |
| 2026-05-07 01:23 | -22.86132 | -43.21735 | 1076 ft | 140 kts | 97° |
| 2026-05-07 01:24 | -22.86281 | -43.20689 | 887 ft | 141 kts | 97° |
| 2026-05-07 01:24 | -22.86445 | -43.19642 | 716 ft | 139 kts | 102° |
| 2026-05-07 01:24 | -22.86753 | -43.18658 | 645 ft | 138 kts | 113° |
| 2026-05-07 01:24 | -22.87233 | -43.17733 | 618 ft | 139 kts | 124° |
| 2026-05-07 01:25 | -22.87889 | -43.16946 | 561 ft | 141 kts | 137° |
| 2026-05-07 01:25 | -22.88768 | -43.16427 | 387 ft | 146 kts | 168° |
| 2026-05-07 01:25 | -22.89790 | -43.16374 | 202 ft | 144 kts | 177° |
| 2026-05-07 01:25 | -22.90817 | -43.16307 | 28 ft | 147 kts | 176° |
| 2026-05-07 01:26 | -22.91884 | -43.16232 | 374 ft | 166 kts | 171° |
| 2026-05-07 01:26 | -22.93005 | -43.15720 | 987 ft | 182 kts | 142° |
| 2026-05-07 01:26 | -22.93924 | -43.14836 | 1833 ft | 171 kts | 126° |
| 2026-05-07 01:26 | -22.94302 | -43.13635 | 2401 ft | 179 kts | 89° |
| 2026-05-07 01:27 | -22.94322 | -43.12295 | 3208 ft | 181 kts | 97° |
| 2026-05-07 01:27 | -22.94636 | -43.10960 | 3809 ft | 191 kts | 104° |
| 2026-05-07 01:27 | -22.94982 | -43.09492 | 4020 ft | 207 kts | 101° |
| 2026-05-07 01:27 | -22.95259 | -43.07894 | 3987 ft | 229 kts | 97° |
| 2026-05-07 01:28 | -22.95448 | -43.06137 | 3983 ft | 236 kts | 100° |
| 2026-05-07 01:28 | -22.96138 | -43.04441 | 3990 ft | 255 kts | 127° |
| 2026-05-07 01:28 | -22.97532 | -43.03236 | 4000 ft | 264 kts | 153° |
| 2026-05-07 01:28 | -22.99294 | -43.02468 | 4738 ft | 276 kts | 158° |
| 2026-05-07 01:29 | -23.01043 | -43.01692 | 5465 ft | 278 kts | 154° |
| 2026-05-07 01:29 | -23.02782 | -43.00781 | 5475 ft | 269 kts | 152° |
| 2026-05-07 01:29 | -23.04421 | -42.99869 | 5465 ft | 269 kts | 149° |
| 2026-05-07 01:29 | -23.05849 | -42.98526 | 5297 ft | 274 kts | 121° |
| 2026-05-07 01:30 | -23.06430 | -42.96599 | 5137 ft | 271 kts | 89° |
| 2026-05-07 01:30 | -23.06020 | -42.94545 | 5470 ft | 284 kts | 70° |
| 2026-05-07 01:30 | -23.05328 | -42.92567 | 5461 ft | 274 kts | 65° |
| 2026-05-07 01:30 | -23.04384 | -42.90866 | 5480 ft | 258 kts | 52° |
| 2026-05-07 01:31 | -23.03141 | -42.89474 | 5480 ft | 254 kts | 38° |
| 2026-05-07 01:31 | -23.01543 | -42.88646 | 5485 ft | 256 kts | 12° |
| 2026-05-07 01:31 | -22.99801 | -42.88653 | 5318 ft | 248 kts | 350° |
| 2026-05-07 01:31 | -22.98166 | -42.89280 | 4844 ft | 254 kts | 335° |
| 2026-05-07 01:32 | -22.96747 | -42.90442 | 4365 ft | 259 kts | 315° |
| 2026-05-07 01:32 | -22.95610 | -42.91948 | 3890 ft | 261 kts | 309° |
| 2026-05-07 01:32 | -22.94524 | -42.93513 | 3674 ft | 252 kts | 309° |
| 2026-05-07 01:32 | -22.93481 | -42.94989 | 3445 ft | 245 kts | 310° |
| 2026-05-07 01:33 | -22.92444 | -42.96419 | 3277 ft | 236 kts | 310° |
| 2026-05-07 01:33 | -22.91470 | -42.97836 | 3120 ft | 226 kts | 308° |
| 2026-05-07 01:33 | -22.90589 | -42.99191 | 2925 ft | 217 kts | 307° |
| 2026-05-07 01:33 | -22.89731 | -43.00517 | 2696 ft | 210 kts | 308° |
| 2026-05-07 01:34 | -22.88900 | -43.01787 | 2488 ft | 204 kts | 308° |
| 2026-05-07 01:34 | -22.88090 | -43.03019 | 2300 ft | 196 kts | 308° |
| 2026-05-07 01:34 | -22.87443 | -43.04223 | 2177 ft | 177 kts | 295° |
| 2026-05-07 01:34 | -22.87107 | -43.05502 | 1890 ft | 172 kts | 285° |
| 2026-05-07 01:35 | -22.86865 | -43.06730 | 1667 ft | 159 kts | 285° |
| 2026-05-07 01:35 | -22.86609 | -43.07871 | 1470 ft | 151 kts | 287° |
| 2026-05-07 01:35 | -22.86350 | -43.08956 | 1271 ft | 148 kts | 287° |
| 2026-05-07 01:35 | -22.86093 | -43.10036 | 1055 ft | 147 kts | 287° |
| 2026-05-07 01:36 | -22.85873 | -43.11127 | 920 ft | 150 kts | 282° |
| 2026-05-07 01:36 | -22.85817 | -43.12259 | 960 ft | 154 kts | 268° |
| 2026-05-07 01:36 | -22.85933 | -43.13409 | 925 ft | 155 kts | 258° |
| 2026-05-07 01:36 | -22.86297 | -43.14503 | 796 ft | 152 kts | 241° |
| 2026-05-07 01:37 | -22.86962 | -43.15377 | 634 ft | 150 kts | 220° |
| 2026-05-07 01:37 | -22.87860 | -43.15968 | 496 ft | 148 kts | 205° |
| 2026-05-07 01:37 | -22.88845 | -43.16346 | 317 ft | 151 kts | 188° |
| 2026-05-07 01:37 | -22.89873 | -43.16372 | 161 ft | 149 kts | 176° |
| 2026-05-07 01:38 | -22.90909 | -43.16300 | 22 ft | 143 kts | 176° |
| 2026-05-07 01:38 | -22.91505 | -43.16259 | 22 ft | 32 kts | 182° |
| 2026-05-07 01:38 | -22.91568 | -43.16328 | 23 ft | 15 kts | 310° |
| 2026-05-07 01:38 | -22.91495 | -43.16407 | 24 ft | 13 kts | 316° |
| 2026-05-07 01:39 | -22.91428 | -43.16476 | 26 ft | 12 kts | 317° |
| 2026-05-07 01:39 | -22.91356 | -43.16510 | 27 ft | 10 kts | 354° |
| 2026-05-07 01:39 | -22.91309 | -43.16549 | 27 ft | 5 kts | 273° |
| 2026-05-07 01:39 | -22.91310 | -43.16577 | 27 ft | 0 kts | 267° |
| 2026-05-07 01:40 | -22.91310 | -43.16578 | 27 ft | 0 kts | 267° |